createdAt,value
2018-04-06T00:02:04.636Z,7.60
2018-04-06T00:04:32.169Z,7.60
2018-04-06T00:06:59.719Z,7.60
2018-04-06T00:09:28.340Z,7.50
2018-04-06T00:11:55.885Z,7.50
2018-04-06T00:14:23.443Z,7.50
2018-04-06T00:16:51.137Z,7.40
2018-04-06T00:19:18.700Z,7.40
2018-04-06T00:21:46.228Z,7.40
2018-04-06T00:24:13.812Z,7.40
2018-04-06T00:26:41.385Z,7.40
2018-04-06T00:29:08.948Z,7.30
2018-04-06T00:31:36.482Z,7.30
2018-04-06T00:34:04.073Z,7.20
2018-04-06T00:36:31.605Z,7.10
2018-04-06T00:38:59.181Z,6.90
2018-04-06T00:41:26.880Z,6.80
2018-04-06T00:43:54.637Z,6.70
2018-04-06T00:46:22.944Z,6.60
2018-04-06T00:48:50.552Z,6.50
2018-04-06T00:51:18.082Z,6.50
2018-04-06T00:53:48.322Z,6.50
2018-04-06T00:56:15.860Z,6.40
2018-04-06T00:58:43.428Z,6.40
2018-04-06T01:01:10.973Z,6.40
2018-04-06T01:03:38.508Z,6.30
2018-04-06T01:06:06.388Z,6.30
2018-04-06T01:08:33.928Z,6.30
2018-04-06T01:11:01.477Z,6.20
2018-04-06T01:13:29.206Z,6.10
2018-04-06T01:15:56.785Z,6.10
2018-04-06T01:18:24.340Z,6.10
2018-04-06T01:20:53.157Z,6.10
2018-04-06T01:23:20.933Z,6.10
2018-04-06T01:25:48.500Z,6.10
2018-04-06T01:28:16.029Z,6.00
2018-04-06T01:30:44.340Z,6.00
2018-04-06T01:33:12.065Z,6.00
2018-04-06T01:35:39.683Z,5.90
2018-04-06T01:38:07.342Z,5.80
2018-04-06T01:40:34.878Z,5.80
2018-04-06T01:43:02.447Z,5.70
2018-04-06T01:45:29.984Z,5.60
2018-04-06T01:47:57.540Z,5.60
2018-04-06T01:50:25.835Z,5.60
2018-04-06T01:52:53.415Z,5.60
2018-04-06T01:55:20.977Z,5.60
2018-04-06T01:57:48.676Z,5.60
2018-04-06T02:00:17.712Z,5.50
2018-04-06T02:02:45.342Z,5.50
2018-04-06T02:05:13.648Z,5.40
2018-04-06T02:07:41.229Z,5.40
2018-04-06T02:10:08.785Z,5.30
2018-04-06T02:12:36.353Z,5.30
2018-04-06T02:15:03.872Z,5.20
2018-04-06T02:17:31.450Z,5.20
2018-04-06T02:19:59.091Z,5.10
2018-04-06T02:22:26.665Z,5.10
2018-04-06T02:24:54.251Z,5.00
2018-04-06T02:27:21.756Z,5.00
2018-04-06T02:29:50.248Z,4.90
2018-04-06T02:32:18.547Z,4.90
2018-04-06T02:34:46.117Z,4.80
2018-04-06T02:37:13.650Z,4.80
2018-04-06T02:39:41.225Z,4.80
2018-04-06T02:42:08.789Z,4.80
2018-04-06T02:44:36.364Z,4.70
2018-04-06T02:47:03.898Z,4.70
2018-04-06T02:49:31.655Z,4.70
2018-04-06T02:51:59.194Z,4.70
2018-04-06T02:54:27.521Z,4.70
2018-04-06T02:56:55.083Z,4.60
2018-04-06T02:59:22.797Z,4.60
2018-04-06T03:01:51.103Z,4.60
2018-04-06T03:04:18.684Z,4.60
2018-04-06T03:06:46.220Z,4.50
2018-04-06T03:09:13.795Z,4.50
2018-04-06T03:11:41.372Z,4.50
2018-04-06T03:14:08.941Z,4.50
2018-04-06T03:16:36.543Z,4.40
2018-04-06T03:19:04.257Z,4.40
2018-04-06T03:21:31.825Z,4.40
2018-04-06T03:23:59.361Z,4.40
2018-04-06T03:26:26.934Z,4.30
2018-04-06T03:28:54.463Z,4.30
2018-04-06T03:31:22.007Z,4.30
2018-04-06T03:33:49.545Z,4.30
2018-04-06T03:36:17.094Z,4.30
2018-04-06T03:38:44.645Z,4.20
2018-04-06T03:41:13.792Z,4.20
2018-04-06T03:43:41.350Z,4.20
2018-04-06T03:46:08.910Z,4.20
2018-04-06T03:48:36.490Z,4.20
2018-04-06T03:51:04.043Z,4.20
2018-04-06T03:53:31.570Z,4.10
2018-04-06T03:55:59.182Z,4.10
2018-04-06T03:58:26.812Z,4.10
2018-04-06T04:00:54.553Z,4.10
2018-04-06T04:03:22.728Z,4.10
2018-04-06T04:05:50.429Z,4.10
2018-04-06T04:08:17.962Z,4.00
2018-04-06T04:10:45.517Z,4.00
2018-04-06T04:13:13.198Z,4.00
2018-04-06T04:15:40.768Z,4.00
2018-04-06T04:18:08.300Z,4.00
2018-04-06T04:20:35.874Z,4.00
2018-04-06T04:23:03.414Z,4.00
2018-04-06T04:25:30.940Z,3.90
2018-04-06T04:27:58.539Z,3.90
2018-04-06T04:30:26.032Z,3.90
2018-04-06T04:32:53.610Z,3.80
2018-04-06T04:35:21.432Z,3.80
2018-04-06T04:37:48.990Z,3.80
2018-04-06T04:40:16.734Z,3.80
2018-04-06T04:42:44.390Z,3.80
2018-04-06T04:45:12.692Z,3.80
2018-04-06T04:47:40.251Z,3.80
2018-04-06T04:50:07.752Z,3.90
2018-04-06T04:52:35.330Z,4.00
2018-04-06T04:55:02.860Z,4.00
2018-04-06T04:57:30.430Z,4.00
2018-04-06T04:59:58.120Z,4.10
2018-04-06T05:02:25.672Z,4.20
2018-04-06T05:04:53.977Z,4.40
2018-04-06T05:07:21.536Z,4.40
2018-04-06T05:09:49.065Z,4.60
2018-04-06T05:12:17.405Z,4.80
2018-04-06T05:14:44.942Z,4.80
2018-04-06T05:17:12.672Z,5.00
2018-04-06T05:19:40.992Z,5.20
2018-04-06T05:22:08.667Z,5.20
2018-04-06T05:24:36.253Z,5.30
2018-04-06T05:27:03.781Z,5.50
2018-04-06T05:29:31.521Z,5.60
2018-04-06T05:31:59.058Z,5.70
2018-04-06T05:34:27.405Z,6.00
2018-04-06T05:36:56.449Z,6.10
2018-04-06T05:39:24.012Z,6.10
2018-04-06T05:41:51.557Z,6.20
2018-04-06T05:44:19.872Z,6.40
2018-04-06T05:46:47.445Z,6.40
2018-04-06T05:49:15.195Z,6.50
2018-04-06T05:51:42.861Z,6.50
2018-04-06T05:54:10.677Z,6.60
2018-04-06T05:56:38.982Z,6.70
2018-04-06T05:59:06.559Z,6.70
2018-04-06T06:01:34.277Z,6.80
2018-04-06T06:04:02.590Z,6.90
2018-04-06T06:06:30.209Z,6.90
2018-04-06T06:08:58.529Z,7.10
2018-04-06T06:11:26.085Z,7.10
2018-04-06T06:13:53.768Z,7.20
2018-04-06T06:16:21.316Z,7.20
2018-04-06T06:18:48.856Z,7.30
2018-04-06T06:21:16.444Z,7.30
2018-04-06T06:23:44.037Z,7.40
2018-04-06T06:26:12.415Z,7.40
2018-04-06T06:28:39.961Z,7.40
2018-04-06T06:31:07.538Z,7.50
2018-04-06T06:33:35.278Z,7.50
2018-04-06T06:36:02.850Z,7.50
2018-04-06T06:38:30.401Z,7.60
2018-04-06T06:40:57.961Z,7.60
2018-04-06T06:43:25.501Z,7.60
2018-04-06T06:45:53.036Z,7.70
2018-04-06T06:48:20.653Z,7.70
2018-04-06T06:50:48.187Z,7.80
2018-04-06T06:53:16.030Z,7.80
2018-04-06T06:55:43.601Z,7.90
2018-04-06T06:58:11.162Z,8.00
2018-04-06T07:00:38.704Z,8.10
2018-04-06T07:03:06.386Z,8.10
2018-04-06T07:05:33.924Z,8.10
2018-04-06T07:08:01.479Z,8.20
2018-04-06T07:10:29.014Z,8.30
2018-04-06T07:12:57.353Z,8.40
2018-04-06T07:15:24.950Z,8.40
2018-04-06T07:17:53.297Z,8.50
2018-04-06T07:20:20.841Z,8.50
2018-04-06T07:22:48.473Z,8.60
2018-04-06T07:25:16.017Z,8.70
2018-04-06T07:27:43.557Z,8.70
2018-04-06T07:30:11.317Z,8.80
2018-04-06T07:32:39.681Z,8.90
2018-04-06T07:35:08.751Z,9.00
2018-04-06T07:37:36.282Z,9.00
2018-04-06T07:40:05.198Z,9.10
2018-04-06T07:42:32.738Z,9.10
2018-04-06T07:45:00.305Z,9.10
2018-04-06T07:47:27.925Z,9.20
2018-04-06T07:49:55.481Z,9.30
2018-04-06T07:52:23.799Z,9.40
2018-04-06T07:54:51.363Z,9.40
2018-04-06T07:57:18.905Z,9.50
2018-04-06T07:59:46.485Z,9.60
2018-04-06T08:02:14.005Z,9.70
2018-04-06T08:04:42.327Z,9.90
2018-04-06T08:07:09.881Z,9.80
2018-04-06T08:09:37.505Z,9.90
2018-04-06T08:12:05.052Z,10.00
2018-04-06T08:14:33.370Z,10.20
2018-04-06T08:17:00.974Z,10.20
2018-04-06T08:19:28.516Z,10.30
2018-04-06T08:21:56.105Z,10.30
2018-04-06T08:24:24.410Z,10.50
2018-04-06T08:26:52.097Z,10.50
2018-04-06T08:29:19.637Z,10.60
2018-04-06T08:31:47.201Z,10.60
2018-04-06T08:34:14.750Z,10.70
2018-04-06T08:36:42.298Z,10.80
2018-04-06T08:39:10.611Z,11.00
2018-04-06T08:41:38.177Z,11.00
2018-04-06T08:44:05.730Z,11.10
2018-04-06T08:46:33.309Z,11.10
2018-04-06T08:49:00.863Z,11.10
2018-04-06T08:51:28.418Z,11.10
2018-04-06T08:53:55.971Z,11.20
2018-04-06T08:56:23.593Z,11.30
2018-04-06T08:58:51.906Z,11.40
2018-04-06T09:01:19.616Z,11.40
2018-04-06T09:03:47.277Z,11.50
2018-04-06T09:06:14.833Z,11.70
2018-04-06T09:08:43.180Z,11.90
2018-04-06T09:11:10.855Z,11.80
2018-04-06T09:13:38.421Z,12.00
2018-04-06T09:16:05.966Z,12.10
2018-04-06T09:18:33.554Z,12.10
2018-04-06T09:21:01.902Z,12.40
2018-04-06T09:23:29.914Z,12.30
2018-04-06T09:25:58.528Z,12.50
2018-04-06T09:28:26.097Z,12.50
2018-04-06T09:30:53.677Z,12.60
2018-04-06T09:33:21.229Z,12.60
2018-04-06T09:35:48.773Z,12.60
2018-04-06T09:38:16.345Z,12.70
2018-04-06T09:40:43.888Z,12.80
2018-04-06T09:43:11.455Z,12.90
2018-04-06T09:45:39.043Z,12.90
2018-04-06T09:48:06.696Z,12.90
2018-04-06T09:50:34.953Z,13.00
2018-04-06T09:53:03.776Z,13.00
2018-04-06T09:55:32.743Z,13.00
2018-04-06T09:58:00.322Z,13.00
2018-04-06T10:00:32.803Z,13.00
2018-04-06T10:03:02.983Z,13.00
2018-04-06T10:05:31.455Z,13.00
2018-04-06T10:07:59.065Z,13.00
2018-04-06T10:10:26.683Z,13.00
2018-04-06T10:12:55.583Z,12.90
2018-04-06T10:15:23.895Z,13.00
2018-04-06T10:17:51.457Z,13.00
2018-04-06T10:20:19.078Z,13.00
2018-04-06T10:22:47.182Z,13.10
2018-04-06T10:25:14.756Z,13.00
2018-04-06T10:27:42.289Z,13.10
2018-04-06T10:30:10.129Z,13.10
2018-04-06T10:32:37.669Z,13.10
2018-04-06T10:35:05.282Z,13.10
2018-04-06T10:37:32.933Z,13.10
2018-04-06T10:40:00.508Z,13.10
2018-04-06T10:42:28.156Z,13.10
2018-04-06T10:44:55.841Z,13.00
2018-04-06T10:47:24.160Z,13.00
2018-04-06T10:49:51.724Z,13.00
2018-04-06T10:52:19.258Z,13.00
2018-04-06T10:54:47.596Z,13.00
2018-04-06T10:57:15.213Z,13.00
2018-04-06T10:59:42.816Z,12.90
2018-04-06T11:02:10.366Z,12.90
2018-04-06T11:04:38.388Z,12.90
2018-04-06T11:07:06.709Z,12.90
2018-04-06T11:09:34.460Z,12.90
2018-04-06T11:12:02.030Z,12.90
2018-04-06T11:14:29.560Z,12.90
2018-04-06T11:16:57.201Z,12.90
2018-04-06T11:19:25.037Z,12.80
2018-04-06T11:21:52.606Z,12.80
2018-04-06T11:24:20.150Z,12.80
2018-04-06T11:26:47.736Z,12.80
2018-04-06T11:29:17.031Z,12.80
2018-04-06T11:31:44.588Z,12.70
2018-04-06T11:34:12.117Z,12.60
2018-04-06T11:36:39.670Z,12.60
2018-04-06T11:39:07.230Z,12.50
2018-04-06T11:41:34.814Z,12.50
2018-04-06T11:44:02.369Z,12.50
2018-04-06T11:46:30.731Z,12.50
2018-04-06T11:48:58.428Z,12.50
2018-04-06T11:51:26.348Z,12.40
2018-04-06T11:53:54.193Z,12.40
2018-04-06T11:56:21.758Z,12.40
2018-04-06T11:58:49.551Z,12.30
2018-04-06T12:01:17.122Z,12.20
2018-04-06T12:03:44.684Z,12.10
2018-04-06T12:06:12.249Z,12.00
2018-04-06T12:08:39.842Z,12.00
2018-04-06T12:11:08.150Z,11.90
2018-04-06T12:13:35.725Z,11.90
2018-04-06T12:16:03.273Z,11.90
2018-04-06T12:18:30.840Z,11.80
2018-04-06T12:20:58.376Z,11.80
2018-04-06T12:23:25.963Z,11.70
2018-04-06T12:25:53.501Z,11.70
2018-04-06T12:28:22.253Z,11.60
2018-04-06T12:30:49.800Z,11.60
2018-04-06T12:33:17.402Z,11.50
2018-04-06T12:35:44.949Z,11.40
2018-04-06T12:38:13.301Z,11.40
2018-04-06T12:40:40.829Z,11.40
2018-04-06T12:43:08.452Z,11.40
2018-04-06T12:45:36.520Z,11.30
2018-04-06T12:48:04.298Z,11.30
2018-04-06T12:50:31.858Z,11.30
2018-04-06T12:52:59.506Z,11.30
2018-04-06T12:55:27.143Z,11.30
2018-04-06T12:57:54.760Z,11.20
2018-04-06T13:00:22.329Z,11.30
2018-04-06T13:02:49.883Z,11.30
2018-04-06T13:05:18.134Z,11.30
2018-04-06T13:07:47.223Z,11.30
2018-04-06T13:10:16.936Z,11.30
2018-04-06T13:12:45.843Z,11.40
2018-04-06T13:15:13.472Z,11.70
2018-04-06T13:17:41.790Z,12.80
2018-04-06T13:20:09.350Z,12.70
2018-04-06T13:22:37.209Z,13.50
2018-04-06T13:25:05.756Z,14.70
2018-04-06T13:27:34.245Z,16.10
2018-04-06T13:30:02.580Z,17.00
2018-04-06T13:32:31.014Z,16.90
2018-04-06T13:34:58.663Z,17.60
2018-04-06T13:37:27.093Z,18.60
2018-04-06T13:39:56.153Z,19.00
2018-04-06T13:42:23.734Z,19.00
2018-04-06T13:44:52.849Z,19.70
2018-04-06T13:47:20.793Z,20.40
2018-04-06T13:49:48.527Z,20.80
2018-04-06T13:52:16.902Z,21.80
2018-04-06T13:54:44.561Z,21.80
2018-04-06T13:57:12.128Z,22.40
2018-04-06T13:59:40.453Z,23.60
2018-04-06T14:02:08.656Z,23.60
2018-04-06T14:04:36.475Z,24.00
2018-04-06T14:07:04.022Z,24.60
2018-04-06T14:09:31.564Z,25.10
2018-04-06T14:11:59.408Z,25.60
2018-04-06T14:14:27.202Z,25.90
2018-04-06T14:16:54.789Z,26.20
2018-04-06T14:19:22.326Z,26.50
2018-04-06T14:21:49.889Z,26.70
2018-04-06T14:24:17.605Z,26.70
2018-04-06T14:26:45.169Z,26.50
2018-04-06T14:29:12.739Z,26.00
2018-04-06T14:31:40.310Z,24.80
2018-04-06T14:34:07.851Z,23.90
2018-04-06T14:36:35.442Z,23.10
2018-04-06T14:39:03.003Z,23.30
2018-04-06T14:41:30.574Z,23.20
2018-04-06T14:43:58.137Z,22.30
2018-04-06T14:46:25.701Z,21.80
2018-04-06T14:48:53.378Z,21.50
2018-04-06T14:51:20.965Z,21.20
2018-04-06T14:53:48.608Z,20.70
2018-04-06T14:56:16.970Z,20.00
2018-04-06T14:58:44.549Z,20.00
2018-04-06T15:01:12.098Z,19.40
2018-04-06T15:03:39.743Z,18.90
2018-04-06T15:06:07.277Z,18.70
2018-04-06T15:08:35.623Z,18.10
2018-04-06T15:11:03.165Z,18.10
2018-04-06T15:13:30.883Z,18.00
2018-04-06T15:15:58.540Z,17.50
2018-04-06T15:18:26.900Z,17.30
2018-04-06T15:20:54.811Z,17.20
2018-04-06T15:23:22.548Z,17.10
2018-04-06T15:25:50.109Z,16.90
2018-04-06T15:28:17.713Z,16.50
2018-04-06T15:30:45.256Z,16.60
2018-04-06T15:33:12.887Z,16.40
2018-04-06T15:35:40.444Z,16.50
2018-04-06T15:38:08.789Z,16.70
2018-04-06T15:40:37.289Z,16.70
2018-04-06T15:43:04.856Z,16.70
2018-04-06T15:45:36.109Z,16.40
2018-04-06T15:48:03.710Z,16.40
2018-04-06T15:50:31.262Z,16.20
2018-04-06T15:52:58.798Z,15.90
2018-04-06T15:55:26.337Z,15.60
2018-04-06T15:57:53.893Z,15.30
2018-04-06T16:00:22.266Z,14.90
2018-04-06T16:02:50.469Z,14.90
2018-04-06T16:05:18.574Z,14.80
2018-04-06T16:07:46.172Z,14.60
2018-04-06T16:10:14.872Z,14.30
2018-04-06T16:12:43.211Z,13.90
2018-04-06T16:15:10.792Z,13.90
2018-04-06T16:17:38.518Z,13.80
2018-04-06T16:20:06.069Z,13.60
2018-04-06T16:22:33.637Z,13.50
2018-04-06T16:25:01.187Z,13.40
2018-04-06T16:27:28.824Z,13.40
2018-04-06T16:29:56.375Z,13.20
2018-04-06T16:32:24.701Z,13.10
2018-04-06T16:34:52.373Z,13.10
2018-04-06T16:37:19.942Z,13.00
2018-04-06T16:39:47.525Z,13.00
2018-04-06T16:42:15.149Z,13.00
2018-04-06T16:44:42.687Z,12.90
2018-04-06T16:47:10.260Z,12.80
2018-04-06T16:49:37.844Z,12.80
2018-04-06T16:52:06.131Z,12.70
2018-04-06T16:54:37.222Z,12.70
2018-04-06T16:57:04.837Z,12.60
2018-04-06T16:59:32.393Z,12.60
2018-04-06T17:02:01.449Z,12.50
2018-04-06T17:04:29.019Z,12.50
2018-04-06T17:06:56.577Z,12.40
2018-04-06T17:09:24.159Z,12.40
2018-04-06T17:11:51.710Z,12.30
2018-04-06T17:14:19.453Z,12.30
2018-04-06T17:16:47.178Z,12.30
2018-04-06T17:19:15.536Z,12.20
2018-04-06T17:21:43.113Z,12.20
2018-04-06T17:24:11.444Z,12.10
2018-04-06T17:26:39.032Z,12.00
2018-04-06T17:29:06.578Z,12.00
2018-04-06T17:31:34.162Z,12.00
2018-04-06T17:34:02.730Z,11.90
2018-04-06T17:36:30.307Z,11.90
2018-04-06T17:38:58.667Z,11.80
2018-04-06T17:41:26.286Z,11.80
2018-04-06T17:43:53.839Z,11.70
2018-04-06T17:46:21.399Z,11.70
2018-04-06T17:48:48.938Z,11.70
2018-04-06T17:51:16.496Z,11.60
2018-04-06T17:53:44.810Z,11.50
2018-04-06T17:56:12.429Z,11.50
2018-04-06T17:58:40.754Z,11.40
2018-04-06T18:01:08.352Z,11.40
2018-04-06T18:03:36.685Z,11.30
2018-04-06T18:06:04.250Z,11.30
2018-04-06T18:08:31.820Z,11.30
2018-04-06T18:10:59.418Z,11.30
2018-04-06T18:13:27.735Z,11.20
2018-04-06T18:15:55.326Z,11.20
2018-04-06T18:18:22.899Z,11.10
2018-04-06T18:20:51.270Z,11.00
2018-04-06T18:23:18.892Z,11.00
2018-04-06T18:25:46.469Z,11.00
2018-04-06T18:28:14.059Z,11.00
2018-04-06T18:30:41.617Z,10.90
2018-04-06T18:33:09.196Z,10.90
2018-04-06T18:35:37.508Z,10.80
2018-04-06T18:38:05.079Z,10.80
2018-04-06T18:40:32.626Z,10.80
2018-04-06T18:43:00.399Z,10.70
2018-04-06T18:45:27.961Z,10.70
2018-04-06T18:47:55.554Z,10.60
2018-04-06T18:50:23.104Z,10.60
2018-04-06T18:52:50.702Z,10.60
2018-04-06T18:55:19.233Z,10.50
2018-04-06T18:57:46.837Z,10.50
2018-04-06T19:00:15.161Z,10.40
2018-04-06T19:02:42.806Z,10.40
2018-04-06T19:05:10.374Z,10.40
2018-04-06T19:07:38.032Z,10.30
2018-04-06T19:10:05.622Z,10.30
2018-04-06T19:12:33.298Z,10.20
2018-04-06T19:15:01.030Z,10.20
2018-04-06T19:17:28.589Z,10.20
2018-04-06T19:19:56.413Z,10.20
2018-04-06T19:22:24.729Z,10.10
2018-04-06T19:24:52.302Z,10.10
2018-04-06T19:27:19.893Z,10.10
2018-04-06T19:29:47.709Z,10.10
2018-04-06T19:32:15.266Z,10.10
2018-04-06T19:34:42.849Z,10.10
2018-04-06T19:37:10.429Z,10.10
2018-04-06T19:39:38.003Z,10.10
2018-04-06T19:42:05.612Z,10.10
2018-04-06T19:44:33.175Z,10.10
2018-04-06T19:47:00.737Z,10.00
2018-04-06T19:49:28.351Z,10.00
2018-04-06T19:51:55.924Z,10.00
2018-04-06T19:54:23.515Z,9.90
2018-04-06T19:56:51.076Z,9.90
2018-04-06T19:59:18.663Z,9.90
2018-04-06T20:01:46.272Z,9.90
2018-04-06T20:04:13.849Z,9.80
2018-04-06T20:06:41.591Z,9.80
2018-04-06T20:09:09.191Z,9.80
2018-04-06T20:11:36.768Z,9.70
2018-04-06T20:14:04.361Z,9.70
2018-04-06T20:16:33.058Z,9.70
2018-04-06T20:19:00.598Z,9.70
2018-04-06T20:21:28.217Z,9.60
2018-04-06T20:23:55.768Z,9.60
2018-04-06T20:26:23.314Z,9.60
2018-04-06T20:28:50.875Z,9.60
2018-04-06T20:31:18.474Z,9.60
2018-04-06T20:33:46.062Z,9.60
2018-04-06T20:36:14.442Z,9.50
2018-04-06T20:38:41.981Z,9.50
2018-04-06T20:41:09.572Z,9.40
2018-04-06T20:43:37.281Z,9.40
2018-04-06T20:46:04.858Z,9.30
2018-04-06T20:48:32.403Z,9.20
2018-04-06T20:50:59.953Z,9.20
2018-04-06T20:53:27.510Z,9.10
2018-04-06T20:55:55.061Z,9.10
2018-04-06T20:58:22.621Z,9.10
2018-04-06T21:00:50.170Z,9.00
2018-04-06T21:03:18.002Z,9.00
2018-04-06T21:05:46.298Z,8.90
2018-04-06T21:08:13.936Z,8.90
2018-04-06T21:10:42.560Z,8.90
2018-04-06T21:13:10.134Z,8.80
2018-04-06T21:15:37.685Z,8.80
2018-04-06T21:18:05.379Z,8.80
2018-04-06T21:20:32.947Z,8.80
2018-04-06T21:23:01.432Z,8.70
2018-04-06T21:25:28.993Z,8.70
2018-04-06T21:27:56.568Z,8.70
2018-04-06T21:30:24.898Z,8.70
2018-04-06T21:32:52.509Z,8.60
2018-04-06T21:35:20.050Z,8.60
2018-04-06T21:37:48.405Z,8.50
2018-04-06T21:40:15.932Z,8.40
2018-04-06T21:42:43.505Z,8.40
2018-04-06T21:45:11.041Z,8.40
2018-04-06T21:47:38.593Z,8.30
2018-04-06T21:50:06.132Z,8.20
2018-04-06T21:52:33.740Z,8.20
2018-04-06T21:55:01.312Z,8.10
2018-04-06T21:57:28.867Z,8.10
2018-04-06T21:59:56.447Z,8.10
2018-04-06T22:02:24.009Z,8.10
2018-04-06T22:04:53.084Z,8.00
2018-04-06T22:07:20.636Z,8.00
2018-04-06T22:09:48.189Z,7.90
2018-04-06T22:12:15.744Z,7.90
2018-04-06T22:14:43.301Z,7.90
2018-04-06T22:17:10.953Z,7.90
2018-04-06T22:19:38.506Z,7.90
2018-04-06T22:22:06.104Z,7.80
2018-04-06T22:24:33.699Z,7.80
2018-04-06T22:27:01.397Z,7.80
2018-04-06T22:29:28.949Z,7.80
2018-04-06T22:31:56.482Z,7.80
2018-04-06T22:34:24.036Z,7.80
2018-04-06T22:36:52.360Z,7.70
2018-04-06T22:39:20.022Z,7.70
2018-04-06T22:41:47.550Z,7.70
2018-04-06T22:44:15.843Z,7.70
2018-04-06T22:46:43.388Z,7.70
2018-04-06T22:49:10.922Z,7.70
2018-04-06T22:51:38.489Z,7.60
2018-04-06T22:54:06.265Z,7.60
2018-04-06T22:56:34.904Z,7.50
2018-04-06T22:59:02.443Z,7.50
2018-04-06T23:01:30.019Z,7.50
2018-04-06T23:03:57.559Z,7.50
2018-04-06T23:06:25.132Z,7.40
2018-04-06T23:08:52.664Z,7.40
2018-04-06T23:11:20.235Z,7.40
2018-04-06T23:13:47.771Z,7.40
2018-04-06T23:16:16.104Z,7.30
2018-04-06T23:18:43.708Z,7.30
2018-04-06T23:21:12.030Z,7.30
2018-04-06T23:23:39.558Z,7.30
2018-04-06T23:26:07.115Z,7.20
2018-04-06T23:28:35.405Z,7.20
2018-04-06T23:31:02.983Z,7.20
2018-04-06T23:33:30.520Z,7.20
2018-04-06T23:35:58.090Z,7.20
2018-04-06T23:38:25.691Z,7.10
2018-04-06T23:40:53.227Z,7.10
2018-04-06T23:43:21.001Z,7.00
2018-04-06T23:45:48.595Z,7.00
2018-04-06T23:48:16.937Z,7.00
2018-04-06T23:50:44.484Z,6.90
2018-04-06T23:53:12.056Z,6.90
2018-04-06T23:55:39.595Z,6.90
2018-04-06T23:58:07.154Z,6.90
